Time;durP1;ratioP1;P1;durP2;ratioP2;P2;SDS_P1;SDS_P2;PMS_P1;PMS_P2;Temp;Humidity;BMP_temperature;BMP_pressure;BME280_temperature;BME280_humidity;BME280_pressure;Samples;Min_cycle;Max_cycle;Signal;HPM_P1;HPM_P2
2022/07/16 00:02:54;;;;;;;5.47;1.70;;;;;;;15.74;100.00;101933.59;4984842;28;20647;-74
2022/07/16 00:05:20;;;;;;;2.40;1.50;;;;;;;15.53;100.00;101905.63;4988094;28;20440;-74
2022/07/16 00:07:45;;;;;;;5.00;1.40;;;;;;;15.81;100.00;101958.78;4983543;28;20221;-73
2022/07/16 00:10:11;;;;;;;4.43;2.37;;;;;;;15.59;100.00;101931.88;4987192;28;20636;-74
2022/07/16 00:12:36;;;;;;;3.67;1.87;;;;;;;15.42;100.00;101897.28;4985324;28;20232;-73
2022/07/16 00:15:03;;;;;;;3.27;1.87;;;;;;;15.13;100.00;101875.00;4986556;28;20336;-72
2022/07/16 00:17:29;;;;;;;3.47;2.37;;;;;;;15.47;100.00;101933.50;4986582;28;20221;-73
2022/07/16 00:19:54;;;;;;;4.87;2.77;;;;;;;15.28;100.00;101915.38;4981523;28;20824;-73
2022/07/16 00:22:19;;;;;;;4.57;2.10;;;;;;;14.99;100.00;101870.59;4981929;28;20194;-74
2022/07/16 00:24:45;;;;;;;4.37;1.90;;;;;;;15.39;100.00;101963.44;4980454;28;20189;-74
2022/07/16 00:27:10;;;;;;;4.37;2.40;;;;;;;15.07;100.00;101922.59;4981851;28;20687;-74
2022/07/16 00:29:36;;;;;;;3.53;2.00;;;;;;;15.42;100.00;101973.00;4983237;28;20189;-75
2022/07/16 00:32:01;;;;;;;6.43;3.00;;;;;;;15.37;100.00;101965.50;4983084;28;20647;-75
2022/07/16 00:34:27;;;;;;;3.67;2.50;;;;;;;13.75;100.00;101723.81;4984456;28;20192;-75
2022/07/16 00:36:52;;;;;;;9.23;3.03;;;;;;;14.71;100.00;101946.31;4982023;28;20225;-75
2022/07/16 00:39:18;;;;;;;7.00;2.77;;;;;;;15.19;100.00;101978.72;4982766;28;20201;-75
2022/07/16 00:41:46;;;;;;;5.90;1.40;;;;;;;14.64;100.00;101906.59;4976813;28;20190;-76
2022/07/16 00:44:17;;;;;;;3.80;1.30;;;;;;;14.77;100.00;101892.31;4984256;28;20511;-75
2022/07/16 00:46:44;;;;;;;6.23;2.33;;;;;;;15.12;100.00;101928.19;4981765;28;20459;-75
2022/07/16 00:49:09;;;;;;;5.10;1.40;;;;;;;14.56;100.00;101847.38;4982286;28;20445;-75
2022/07/16 00:51:36;;;;;;;6.30;1.73;;;;;;;15.07;100.00;101960.41;4982280;28;20949;-76
2022/07/16 00:54:03;;;;;;;8.57;1.93;;;;;;;15.51;100.00;102009.66;4980300;28;20197;-75
2022/07/16 00:56:29;;;;;;;4.43;1.33;;;;;;;15.05;100.00;101945.44;4983116;28;20716;-75
2022/07/16 00:58:55;;;;;;;2.93;1.10;;;;;;;15.37;100.00;102012.28;4981497;28;20449;-75
2022/07/16 01:01:20;;;;;;;3.67;1.00;;;;;;;15.52;100.00;102020.25;4983831;28;20197;-75
2022/07/16 01:03:46;;;;;;;3.67;0.90;;;;;;;15.52;100.00;102006.72;4978540;28;20446;-74
2022/07/16 01:06:13;;;;;;;5.40;1.10;;;;;;;15.49;100.00;102006.31;4982548;28;20569;-75
2022/07/16 01:08:41;;;;;;;3.57;1.23;;;;;;;15.54;100.00;102001.97;4982352;28;20248;-75
2022/07/16 01:11:09;;;;;;;2.63;0.80;;;;;;;15.40;100.00;101992.13;4983624;28;20934;-74
2022/07/16 01:13:35;;;;;;;2.10;0.93;;;;;;;14.98;100.00;101894.06;4983385;28;20470;-75
2022/07/16 01:16:02;;;;;;;3.00;0.93;;;;;;;14.90;100.00;101891.56;4979348;28;20564;-75
2022/07/16 01:18:28;;;;;;;4.67;0.97;;;;;;;15.25;100.00;101977.94;4983030;28;20441;-75
2022/07/16 01:20:53;;;;;;;4.33;1.10;;;;;;;14.90;100.00;101913.16;4980489;28;20758;-76
2022/07/16 01:23:21;;;;;;;1.90;0.80;;;;;;;15.57;100.00;102008.84;4984130;28;20527;-75
2022/07/16 01:25:47;;;;;;;1.90;1.13;;;;;;;15.66;100.00;102017.59;4981176;28;20268;-75
2022/07/16 01:28:12;;;;;;;4.43;1.40;;;;;;;15.67;100.00;102006.56;4980505;28;20554;-75
2022/07/16 01:30:38;;;;;;;2.70;1.10;;;;;;;14.86;100.00;101911.88;4981877;28;20650;-73
2022/07/16 01:33:25;;;;;;;3.97;1.20;;;;;;;15.54;100.00;102010.06;4977330;28;20193;-72
2022/07/16 01:35:56;;;;;;;3.23;0.90;;;;;;;15.01;100.00;101912.56;4981745;28;20217;-75
2022/07/16 01:38:22;;;;;;;2.57;0.77;;;;;;;15.59;100.00;101995.94;4982811;28;20520;-75
2022/07/16 01:40:48;;;;;;;1.13;0.87;;;;;;;15.38;100.00;101973.41;4979868;28;20519;-75
2022/07/16 01:43:21;;;;;;;1.03;0.87;;;;;;;15.53;100.00;102002.97;4981698;28;20949;-74
2022/07/16 01:45:47;;;;;;;5.10;1.10;;;;;;;15.20;100.00;101959.63;4980698;28;20188;-75
2022/07/16 01:48:14;;;;;;;2.37;1.00;;;;;;;15.34;100.00;102001.88;4981193;28;20895;-74
2022/07/16 01:50:40;;;;;;;2.57;1.00;;;;;;;13.29;100.00;101720.81;4982825;28;20185;-75
2022/07/16 01:53:06;;;;;;;4.10;0.87;;;;;;;15.25;100.00;101999.56;4979556;28;20539;-74
2022/07/16 01:55:33;;;;;;;1.57;0.83;;;;;;;14.83;100.00;101929.31;4980561;28;20938;-75
2022/07/16 01:57:59;;;;;;;2.80;0.70;;;;;;;15.06;100.00;101952.50;4978144;28;20463;-75
2022/07/16 02:00:25;;;;;;;6.97;1.00;;;;;;;15.02;100.00;101979.09;4984228;28;20462;-75
2022/07/16 02:02:50;;;;;;;2.30;0.77;;;;;;;15.18;100.00;101998.69;4977888;28;20950;-75
2022/07/16 02:05:16;;;;;;;1.30;1.00;;;;;;;14.32;100.00;101853.22;4983791;28;20182;-75
2022/07/16 02:07:41;;;;;;;0.97;0.80;;;;;;;14.49;100.00;101881.53;4984601;28;20202;-75
2022/07/16 02:10:07;;;;;;;2.70;0.83;;;;;;;14.69;100.00;101904.16;4982609;28;20318;-75
2022/07/16 02:12:33;;;;;;;0.80;0.70;;;;;;;14.61;100.00;101909.69;4980276;28;20232;-74
2022/07/16 02:14:58;;;;;;;0.70;0.60;;;;;;;15.18;100.00;102004.94;4980573;28;20186;-74
2022/07/16 02:17:25;;;;;;;1.33;0.90;;;;;;;14.93;100.00;102001.91;4982726;28;20472;-75
2022/07/16 02:19:50;;;;;;;3.47;0.97;;;;;;;14.64;100.00;101914.69;4983961;28;20189;-75
2022/07/16 02:22:16;;;;;;;2.60;1.00;;;;;;;14.84;100.00;101957.16;4983656;28;21076;-75
2022/07/16 02:24:42;;;;;;;1.23;0.80;;;;;;;15.10;100.00;102007.78;4984372;28;20236;-75
2022/07/16 02:27:07;;;;;;;2.07;1.10;;;;;;;14.77;100.00;101943.63;4983695;28;20456;-75
2022/07/16 02:29:33;;;;;;;4.53;1.03;;;;;;;14.07;100.00;101855.56;4985306;28;20556;-75
2022/07/16 02:31:58;;;;;;;4.40;1.17;;;;;;;14.66;100.00;101961.22;4983543;28;20333;-75
2022/07/16 02:34:23;;;;;;;1.90;0.93;;;;;;;14.84;100.00;101995.84;4984429;28;20188;-75
2022/07/16 02:36:49;;;;;;;3.97;1.10;;;;;;;14.95;100.00;102004.41;4983615;28;20206;-75
2022/07/16 02:39:14;;;;;;;2.70;1.70;;;;;;;13.70;100.00;101801.75;4983599;28;20647;-75
2022/07/16 02:41:39;;;;;;;3.03;1.10;;;;;;;14.38;100.00;101903.72;4983823;28;20185;-75
2022/07/16 02:44:05;;;;;;;1.90;0.80;;;;;;;14.60;100.00;101962.00;4984128;28;20261;-75
2022/07/16 02:46:30;;;;;;;4.93;1.10;;;;;;;14.57;100.00;101959.72;4978752;28;20210;-75
2022/07/16 02:48:56;;;;;;;2.30;0.90;;;;;;;14.60;100.00;101997.13;4978686;28;20189;-75
2022/07/16 02:51:21;;;;;;;2.03;1.10;;;;;;;13.94;100.00;101896.75;4983076;28;20677;-75
2022/07/16 02:53:46;;;;;;;2.30;1.07;;;;;;;14.57;100.00;101989.41;4983178;28;20182;-75
2022/07/16 02:56:12;;;;;;;0.90;0.80;;;;;;;14.53;100.00;101990.84;4984149;28;20202;-75
2022/07/16 02:58:37;;;;;;;1.90;0.90;;;;;;;14.36;100.00;101974.06;4981212;28;20181;-75
2022/07/16 03:01:03;;;;;;;2.67;1.10;;;;;;;14.79;100.00;102016.38;4978787;28;20256;-75
2022/07/16 03:03:28;;;;;;;1.80;1.00;;;;;;;14.19;100.00;101951.09;4982222;28;20225;-74
2022/07/16 03:05:54;;;;;;;1.17;0.80;;;;;;;14.52;100.00;102031.53;4981000;28;20673;-74
2022/07/16 03:08:19;;;;;;;2.40;0.80;;;;;;;14.67;100.00;102008.81;4979211;28;20579;-74
2022/07/16 03:10:45;;;;;;;2.17;0.80;;;;;;;14.65;100.00;102029.78;4982656;28;20178;-74
2022/07/16 03:13:11;;;;;;;2.00;1.10;;;;;;;14.59;100.00;102016.22;4976001;28;20762;-74
2022/07/16 03:15:36;;;;;;;2.60;0.90;;;;;;;14.58;100.00;102015.41;4978850;28;20433;-74
2022/07/16 03:18:02;;;;;;;1.70;1.00;;;;;;;14.20;100.00;101959.03;4980109;28;20233;-74
2022/07/16 03:20:27;;;;;;;2.20;0.97;;;;;;;14.50;100.00;102029.00;4981541;28;20186;-75
2022/07/16 03:22:52;;;;;;;3.53;1.17;;;;;;;14.51;100.00;101998.28;4978632;28;20567;-74
2022/07/16 03:25:18;;;;;;;1.80;1.10;;;;;;;14.50;100.00;102020.91;4988563;28;20674;-74
2022/07/16 03:27:43;;;;;;;2.30;1.00;;;;;;;14.28;100.00;102021.97;4978459;28;20213;-75
2022/07/16 03:30:09;;;;;;;1.90;1.07;;;;;;;14.64;100.00;102030.81;4974807;28;20185;-75
2022/07/16 03:32:35;;;;;;;2.50;0.90;;;;;;;14.50;100.00;102034.41;4977610;28;20682;-75
2022/07/16 03:35:06;;;;;;;2.50;1.10;;;;;;;13.89;100.00;101956.69;4980303;28;20455;-74
2022/07/16 03:37:32;;;;;;;2.33;1.30;;;;;;;14.55;100.00;102036.53;4977083;28;20214;-74
2022/07/16 03:39:58;;;;;;;3.83;1.13;;;;;;;14.21;100.00;102005.72;4978912;28;20953;-75
2022/07/16 03:42:24;;;;;;;1.73;0.90;;;;;;;14.25;100.00;101986.22;4970975;28;20438;-74
2022/07/16 03:44:49;;;;;;;2.33;1.00;;;;;;;13.85;100.00;101924.88;4970212;28;20189;-75
2022/07/16 03:47:14;;;;;;;3.37;1.10;;;;;;;13.05;100.00;101786.66;4980734;28;20229;-74
2022/07/16 03:49:40;;;;;;;2.70;1.40;;;;;;;13.97;100.00;101929.56;4974091;28;20189;-75
2022/07/16 03:52:05;;;;;;;2.20;1.03;;;;;;;14.31;100.00;101965.72;4972921;28;20781;-75
2022/07/16 03:54:30;;;;;;;2.07;1.50;;;;;;;14.73;100.00;102049.56;4975820;28;20194;-75
2022/07/16 03:56:56;;;;;;;2.07;1.33;;;;;;;14.58;100.00;102017.25;4974547;28;20233;-75
2022/07/16 03:59:21;;;;;;;4.47;1.90;;;;;;;14.82;100.00;102048.38;4970731;28;20665;-75
2022/07/16 04:01:47;;;;;;;2.70;0.93;;;;;;;14.84;100.00;102046.28;4970762;28;20196;-75
2022/07/16 04:04:12;;;;;;;3.83;1.40;;;;;;;14.73;100.00;102054.97;4975403;28;20183;-75
2022/07/16 04:06:37;;;;;;;2.55;0.90;;;;;;;14.82;100.00;102059.19;4987675;23;20217;-68
2022/07/16 04:09:03;;;;;;;1.57;1.07;;;;;;;14.90;100.00;102054.47;4987236;28;20213;-69
2022/07/16 04:11:29;;;;;;;1.33;1.00;;;;;;;14.57;100.00;102005.63;4998753;28;20698;-69
2022/07/16 04:13:54;;;;;;;3.90;1.53;;;;;;;14.73;100.00;102026.09;4989310;28;20214;-69
2022/07/16 04:16:19;;;;;;;2.50;1.30;;;;;;;14.72;100.00;102023.56;4992115;28;20209;-69
2022/07/16 04:18:45;;;;;;;2.80;1.20;;;;;;;14.72;100.00;102037.06;4998273;28;20189;-69
2022/07/16 04:21:10;;;;;;;3.80;1.37;;;;;;;14.89;100.00;102060.88;5000317;28;20243;-69
2022/07/16 04:23:36;;;;;;;1.53;1.03;;;;;;;14.90;100.00;102046.38;4999342;28;20212;-69
2022/07/16 04:26:02;;;;;;;5.07;1.93;;;;;;;14.99;100.00;102063.25;4996952;28;20193;-69
2022/07/16 04:28:28;;;;;;;2.10;1.03;;;;;;;15.05;100.00;102031.91;5000590;28;20196;-68
2022/07/16 04:30:53;;;;;;;2.17;1.10;;;;;;;15.17;100.00;102049.22;4999483;28;20437;-69
2022/07/16 04:33:19;;;;;;;4.37;1.50;;;;;;;15.28;100.00;102067.56;5001635;28;20240;-69
2022/07/16 04:35:44;;;;;;;3.67;1.30;;;;;;;15.30;100.00;102059.25;4999337;28;20189;-69
2022/07/16 04:38:10;;;;;;;5.17;1.47;;;;;;;15.42;100.00;102075.72;5001498;28;20670;-69
2022/07/16 04:40:35;;;;;;;4.73;1.17;;;;;;;15.37;100.00;102069.06;5003202;28;20716;-69
2022/07/16 04:43:00;;;;;;;1.60;0.90;;;;;;;15.42;100.00;102091.94;5004446;28;20260;-69
2022/07/16 04:45:26;;;;;;;2.60;1.13;;;;;;;15.30;100.00;102083.56;5002482;28;20196;-69
2022/07/16 04:47:51;;;;;;;3.90;1.20;;;;;;;15.35;100.00;102094.63;5005046;28;20594;-69
2022/07/16 04:50:16;;;;;;;3.27;1.30;;;;;;;15.38;100.00;102089.66;5004657;28;20189;-68
2022/07/16 04:52:42;;;;;;;5.37;1.53;;;;;;;15.28;100.00;102089.19;5005332;28;20213;-69
2022/07/16 04:55:08;;;;;;;2.63;1.13;;;;;;;15.31;100.00;102079.84;5002614;28;20627;-69
2022/07/16 04:57:34;;;;;;;4.03;1.10;;;;;;;15.28;100.00;102085.66;5001068;28;20718;-69
2022/07/16 04:59:59;;;;;;;3.63;1.27;;;;;;;15.42;100.00;102109.03;5002978;28;20448;-68
2022/07/16 05:05:09;;;;;;;3.27;1.17;;;;;;;15.41;100.00;102104.63;5002093;28;20505;-69
2022/07/16 05:07:35;;;;;;;4.53;1.20;;;;;;;15.18;100.00;102088.72;5003002;28;20482;-69
2022/07/16 05:10:01;;;;;;;4.10;1.30;;;;;;;15.29;100.00;102108.94;5003554;28;20177;-69
2022/07/16 05:12:26;;;;;;;5.37;1.20;;;;;;;15.29;100.00;102100.84;5001946;28;20479;-69
2022/07/16 05:14:52;;;;;;;2.10;0.90;;;;;;;15.22;100.00;102090.00;5001220;28;20185;-69
2022/07/16 05:17:17;;;;;;;3.30;1.30;;;;;;;15.44;100.00;102088.00;5003878;28;20220;-69
2022/07/16 05:19:42;;;;;;;3.40;1.00;;;;;;;15.48;100.00;102096.59;5002049;28;20244;-69
2022/07/16 05:22:08;;;;;;;4.80;1.20;;;;;;;15.58;100.00;102122.19;5002749;28;20279;-68
2022/07/16 05:24:34;;;;;;;4.80;1.73;;;;;;;15.45;100.00;102124.84;5001689;28;20177;-69
2022/07/16 05:26:59;;;;;;;4.60;1.00;;;;;;;15.32;100.00;102127.47;5004286;28;20193;-69
2022/07/16 05:29:25;;;;;;;3.70;1.80;;;;;;;15.30;100.00;102122.28;5000872;28;20444;-69
2022/07/16 05:31:51;;;;;;;6.23;1.57;;;;;;;15.35;100.00;102116.25;5001291;28;20222;-69
2022/07/16 05:34:16;;;;;;;4.87;1.23;;;;;;;15.58;100.00;102134.91;5004285;28;20208;-68
2022/07/16 05:36:41;;;;;;;3.00;1.40;;;;;;;15.56;100.00;102143.22;5003054;28;20206;-69
2022/07/16 05:39:07;;;;;;;4.13;1.10;;;;;;;15.23;100.00;102105.16;5003848;28;20271;-69
2022/07/16 05:41:32;;;;;;;5.13;1.27;;;;;;;15.24;100.00;102112.22;5000981;28;20666;-68
2022/07/16 05:43:58;;;;;;;3.60;1.20;;;;;;;15.29;100.00;102152.19;5000365;28;20206;-69
2022/07/16 05:46:23;;;;;;;3.23;0.97;;;;;;;15.14;100.00;102145.03;5002864;28;20181;-69
2022/07/16 05:48:49;;;;;;;4.03;1.10;;;;;;;15.20;100.00;102150.69;4999451;28;20685;-68
2022/07/16 05:51:15;;;;;;;5.10;1.10;;;;;;;15.12;100.00;102151.66;4999246;28;20185;-67
2022/07/16 05:53:40;;;;;;;2.07;0.70;;;;;;;14.99;100.00;102127.25;5002069;28;20737;-69
2022/07/16 05:56:06;;;;;;;4.57;0.97;;;;;;;15.12;100.00;102155.19;5004007;28;20231;-69
2022/07/16 05:58:31;;;;;;;4.17;1.10;;;;;;;15.15;100.00;102154.78;4999503;28;20277;-69
2022/07/16 06:00:56;;;;;;;5.70;1.03;;;;;;;15.22;100.00;102162.97;5003538;28;20193;-69
2022/07/16 06:03:23;;;;;;;2.60;1.00;;;;;;;15.11;100.00;102167.03;5003179;28;20260;-69
2022/07/16 06:05:48;;;;;;;2.47;1.00;;;;;;;15.17;100.00;102168.13;4999849;28;20197;-69
2022/07/16 06:08:14;;;;;;;3.37;1.20;;;;;;;14.73;100.00;102112.50;5001718;28;20454;-69
2022/07/16 06:10:39;;;;;;;2.20;0.80;;;;;;;15.14;100.00;102177.47;5001488;28;20283;-68
2022/07/16 06:13:05;;;;;;;3.63;1.07;;;;;;;15.25;100.00;102175.25;4999435;28;20216;-69
2022/07/16 06:15:30;;;;;;;4.70;1.10;;;;;;;15.34;100.00;102174.91;4992587;28;20189;-69
2022/07/16 06:17:55;;;;;;;4.90;1.03;;;;;;;15.30;100.00;102173.63;4997692;28;20248;-68
2022/07/16 06:20:22;;;;;;;5.60;0.87;;;;;;;15.27;100.00;102136.16;4998352;28;20184;-69
2022/07/16 06:22:48;;;;;;;1.90;0.90;;;;;;;15.32;100.00;102124.75;5001203;28;20236;-69
2022/07/16 06:25:15;;;;;;;2.80;0.87;;;;;;;15.47;100.00;102168.72;4992783;28;20473;-69
2022/07/16 06:27:44;;;;;;;2.13;0.80;;;;;;;15.56;100.00;102172.97;5002997;28;20535;-69
2022/07/16 06:30:10;;;;;;;4.10;1.23;;;;;;;15.47;100.00;102139.00;4998672;28;20461;-69
2022/07/16 06:32:36;;;;;;;6.57;1.20;;;;;;;15.68;100.00;102175.97;4993290;28;20468;-69
2022/07/16 06:35:01;;;;;;;2.40;0.73;;;;;;;15.74;100.00;102174.34;4994798;28;20459;-68
2022/07/16 06:37:26;;;;;;;1.90;0.70;;;;;;;15.55;100.00;102168.56;4997215;28;20291;-68
2022/07/16 06:39:52;;;;;;;1.50;0.70;;;;;;;15.46;100.00;102150.84;4999861;28;20188;-68
2022/07/16 06:42:18;;;;;;;2.03;0.80;;;;;;;15.73;100.00;102186.19;5001087;28;20205;-68
2022/07/16 06:44:43;;;;;;;6.40;1.00;;;;;;;15.81;100.00;102184.13;4997816;28;20654;-68
2022/07/16 06:47:08;;;;;;;2.40;0.80;;;;;;;16.01;100.00;102181.53;4993869;28;20186;-68
2022/07/16 06:49:34;;;;;;;1.60;1.03;;;;;;;15.87;100.00;102189.78;4998420;28;20189;-68
2022/07/16 06:51:59;;;;;;;3.50;1.00;;;;;;;15.69;100.00;102147.06;5000271;28;20713;-68
2022/07/16 06:54:25;;;;;;;2.23;0.83;;;;;;;15.74;100.00;102163.53;4999009;28;20189;-69
2022/07/16 06:56:50;;;;;;;2.37;1.10;;;;;;;15.75;100.00;102195.75;4998946;28;20283;-68
2022/07/16 06:59:16;;;;;;;1.77;0.87;;;;;;;15.71;100.00;102199.09;4998307;28;20216;-68
2022/07/16 07:01:41;;;;;;;4.37;1.10;;;;;;;15.87;100.00;102206.03;5000334;28;20256;-69
2022/07/16 07:04:06;;;;;;;3.13;0.80;;;;;;;15.90;100.00;102202.91;5003496;28;20213;-69
2022/07/16 07:06:32;;;;;;;1.53;0.83;;;;;;;15.97;100.00;102209.22;5001168;28;20603;-68
2022/07/16 07:08:57;;;;;;;3.80;1.10;;;;;;;15.99;100.00;102212.53;4993872;28;20247;-68
2022/07/16 07:11:23;;;;;;;5.30;1.03;;;;;;;16.13;100.00;102219.66;4997090;28;20765;-69
2022/07/16 07:13:48;;;;;;;2.77;0.90;;;;;;;15.79;100.00;102174.56;4996479;28;20228;-68
2022/07/16 07:16:14;;;;;;;2.60;0.80;;;;;;;16.41;100.00;102221.44;4998835;28;20255;-69
2022/07/16 07:18:39;;;;;;;2.00;0.80;;;;;;;16.38;100.00;102217.28;5002683;28;20323;-68
2022/07/16 07:21:05;;;;;;;3.13;0.90;;;;;;;16.31;100.00;102229.94;4997334;28;20242;-68
2022/07/16 07:23:30;;;;;;;2.00;0.90;;;;;;;16.36;100.00;102218.50;4990245;28;20216;-68
2022/07/16 07:25:56;;;;;;;7.73;0.90;;;;;;;16.48;100.00;102238.53;4997015;28;20186;-68
2022/07/16 07:28:21;;;;;;;2.33;0.90;;;;;;;16.32;100.00;102212.66;4991846;28;20284;-68
2022/07/16 07:30:47;;;;;;;4.73;1.00;;;;;;;16.44;100.00;102242.69;4992012;28;20220;-68
2022/07/16 07:33:13;;;;;;;2.67;1.10;;;;;;;16.41;100.00;102262.91;4995474;28;20244;-68
2022/07/16 07:35:39;;;;;;;3.57;1.07;;;;;;;16.23;100.00;102249.09;4997887;28;20267;-68
2022/07/16 07:38:05;;;;;;;3.27;0.90;;;;;;;16.01;100.00;102251.06;4998891;28;20479;-69
2022/07/16 07:40:30;;;;;;;4.67;1.07;;;;;;;15.98;100.00;102267.69;4999767;28;20213;-68
2022/07/16 07:42:56;;;;;;;4.93;1.00;;;;;;;15.97;100.00;102280.41;4999328;28;20220;-68
2022/07/16 07:45:21;;;;;;;3.13;1.30;;;;;;;15.71;100.00;102247.78;5003351;28;20193;-69
2022/07/16 07:47:47;;;;;;;2.80;0.90;;;;;;;15.94;100.00;102263.69;5001127;28;20186;-68
2022/07/16 07:50:13;;;;;;;3.17;0.60;;;;;;;15.95;100.00;102251.88;5001976;28;20272;-69
2022/07/16 07:52:39;;;;;;;1.97;0.83;;;;;;;16.19;100.00;102283.81;4997407;28;20309;-68
2022/07/16 07:55:06;;;;;;;3.10;1.00;;;;;;;16.25;100.00;102272.19;5001890;28;20177;-69
2022/07/16 07:57:31;;;;;;;2.53;1.00;;;;;;;16.44;100.00;102257.06;5003246;28;20464;-69
2022/07/16 07:59:57;;;;;;;3.90;1.00;;;;;;;16.66;100.00;102281.28;5000714;28;20440;-68
2022/07/16 08:02:22;;;;;;;2.53;0.90;;;;;;;16.67;100.00;102274.84;5002172;28;20209;-68
2022/07/16 08:04:48;;;;;;;1.53;0.80;;;;;;;16.91;100.00;102276.19;5002462;28;20677;-68
2022/07/16 08:07:13;;;;;;;3.30;1.20;;;;;;;16.79;100.00;102235.31;5000886;28;20197;-69
2022/07/16 08:09:39;;;;;;;3.00;0.90;;;;;;;16.82;100.00;102248.44;5001867;28;20185;-69
2022/07/16 08:12:05;;;;;;;3.53;0.80;;;;;;;16.83;100.00;102277.19;5001749;28;20599;-68
2022/07/16 08:14:30;;;;;;;2.57;0.97;;;;;;;16.73;100.00;102276.75;4999813;28;20436;-69
2022/07/16 08:16:56;;;;;;;2.83;1.27;;;;;;;16.96;100.00;102259.31;5003038;28;20208;-68
2022/07/16 08:19:22;;;;;;;3.03;0.93;;;;;;;17.16;100.00;102274.53;5004473;28;20248;-69
2022/07/16 08:21:48;;;;;;;2.37;0.90;;;;;;;17.13;100.00;102282.28;5006827;28;20429;-69
2022/07/16 08:26:58;;;;;;;1.93;0.80;;;;;;;16.96;100.00;102287.25;5004341;28;20211;-68
2022/07/16 08:29:24;;;;;;;2.13;0.80;;;;;;;17.20;100.00;102276.84;5002389;28;20436;-68
2022/07/16 08:31:49;;;;;;;2.33;1.23;;;;;;;17.32;100.00;102275.16;5008826;28;20276;-69
2022/07/16 08:34:15;;;;;;;4.23;1.27;;;;;;;17.43;100.00;102279.97;5004921;28;20193;-69
2022/07/16 08:36:41;;;;;;;2.80;1.00;;;;;;;17.68;100.00;102282.03;5000294;28;20220;-69
2022/07/16 08:39:06;;;;;;;2.83;0.80;;;;;;;17.38;100.00;102258.06;5001537;28;20191;-69
2022/07/16 08:41:33;;;;;;;2.13;1.00;;;;;;;17.62;100.00;102289.97;5004310;28;20194;-69
2022/07/16 08:43:59;;;;;;;4.07;0.80;;;;;;;17.26;100.00;102303.94;5004242;28;20249;-68
2022/07/16 08:46:26;;;;;;;4.50;0.87;;;;;;;17.16;100.00;102301.66;5004069;28;20490;-69
2022/07/16 08:48:52;;;;;;;5.37;1.00;;;;;;;17.18;100.00;102309.56;5018487;28;20185;-68
2022/07/16 08:51:22;;;;;;;3.40;0.83;;;;;;;17.23;100.00;102303.53;5004313;28;21036;-69
2022/07/16 08:53:50;;;;;;;1.97;1.10;;;;;;;17.38;100.00;102299.56;5005077;28;20509;-69
2022/07/16 08:56:17;;;;;;;3.50;1.10;;;;;;;17.14;100.00;102284.75;5003185;28;20467;-68
2022/07/16 08:58:42;;;;;;;4.37;1.03;;;;;;;17.33;100.00;102291.25;5001037;28;20439;-68
2022/07/16 09:01:08;;;;;;;4.77;1.10;;;;;;;17.41;100.00;102330.88;5004238;28;20828;-69
2022/07/16 09:03:33;;;;;;;2.80;1.30;;;;;;;17.16;100.00;102323.34;5003768;28;20209;-69
2022/07/16 09:06:00;;;;;;;3.90;1.60;;;;;;;17.21;100.00;102324.59;5003511;28;20197;-68
2022/07/16 09:08:25;;;;;;;3.77;1.70;;;;;;;17.24;100.00;102294.34;5009183;28;20192;-68
2022/07/16 09:10:51;;;;;;;2.70;1.47;;;;;;;17.73;100.00;102334.59;5003787;28;20965;-69
2022/07/16 09:13:16;;;;;;;5.70;1.60;;;;;;;17.52;100.00;102324.00;5002084;28;20572;-69
2022/07/16 09:15:43;;;;;;;4.50;1.23;;;;;;;17.37;100.00;102322.31;5004542;28;20196;-68
2022/07/16 09:18:16;;;;;;;3.27;1.00;;;;;;;17.38;100.00;102351.09;5004146;28;20200;-69
2022/07/16 09:20:43;;;;;;;2.80;1.13;;;;;;;17.45;100.00;102364.69;5004830;28;20506;-68
2022/07/16 09:23:30;;;;;;;3.23;1.20;;;;;;;16.66;100.00;102293.00;5004602;28;20436;-69
2022/07/16 09:25:58;;;;;;;2.23;0.80;;;;;;;17.01;100.00;102355.22;5002122;28;20439;-69
2022/07/16 09:28:25;;;;;;;3.70;1.10;;;;;;;16.96;100.00;102348.75;5003449;28;20423;-68
2022/07/16 09:30:51;;;;;;;2.00;0.90;;;;;;;17.22;100.00;102375.09;4999366;28;20444;-69
2022/07/16 09:33:22;;;;;;;2.63;0.90;;;;;;;17.44;100.00;102371.13;5003641;28;20456;-69
2022/07/16 09:36:04;;;;;;;2.10;1.00;;;;;;;17.74;100.00;102365.31;5001999;28;20442;-68
2022/07/16 09:38:29;;;;;;;4.10;1.10;;;;;;;18.09;100.00;102371.38;5004792;28;20919;-68
2022/07/16 09:40:54;;;;;;;3.03;1.67;;;;;;;17.96;100.00;102368.66;5002507;28;20451;-69
2022/07/16 09:43:22;;;;;;;1.40;0.80;;;;;;;17.98;100.00;102344.84;5004521;28;20204;-69
2022/07/16 09:45:57;;;;;;;4.60;0.80;;;;;;;17.72;100.00;102359.25;5002570;28;20284;-69
2022/07/16 09:48:24;;;;;;;6.63;1.07;;;;;;;17.89;100.00;102387.69;5004768;28;20461;-69
2022/07/16 09:50:52;;;;;;;4.30;1.30;;;;;;;17.70;100.00;102388.47;5003483;28;20933;-69
2022/07/16 09:53:24;;;;;;;1.23;0.90;;;;;;;17.62;100.00;102395.78;5002203;28;20461;-69
2022/07/16 09:56:00;;;;;;;5.27;1.27;;;;;;;17.62;100.00;102400.38;5003522;28;20420;-69
2022/07/16 09:58:26;;;;;;;2.17;1.00;;;;;;;17.75;100.00;102405.81;5004043;28;20440;-68
2022/07/16 10:00:52;;;;;;;5.00;1.90;;;;;;;17.79;100.00;102382.69;5000665;28;20549;-68
2022/07/16 10:03:19;;;;;;;3.53;1.67;;;;;;;17.76;100.00;102331.50;5003473;28;20483;-69
2022/07/16 10:05:44;;;;;;;2.57;1.90;;;;;;;18.13;100.00;102369.88;5002746;28;21112;-68
2022/07/16 10:08:10;;;;;;;6.83;3.60;;;;;;;17.39;100.00;102297.72;5017340;23;20432;-72
2022/07/16 10:10:35;;;;;;;4.60;2.40;;;;;;;18.05;100.00;102370.97;4982816;28;20208;-72
2022/07/16 10:13:02;;;;;;;4.30;1.70;;;;;;;18.22;100.00;102354.19;4982763;28;20273;-72
2022/07/16 10:15:27;;;;;;;3.90;1.43;;;;;;;17.87;100.00;102327.31;4981621;28;20182;-74
2022/07/16 10:17:53;;;;;;;6.37;3.00;;;;;;;17.90;100.00;102336.94;4980812;28;20492;-75
2022/07/16 10:20:20;;;;;;;2.30;1.40;;;;;;;17.26;100.00;102251.59;4986546;28;20456;-75
2022/07/16 10:22:50;;;;;;;7.43;3.03;;;;;;;16.84;100.00;102254.50;4982463;28;20185;-75
2022/07/16 10:25:22;;;;;;;6.93;3.80;;;;;;;16.55;100.00;102181.66;4976710;28;20543;-75
2022/07/16 10:27:49;;;;;;;9.30;2.70;;;;;;;15.48;100.00;102048.75;4985584;28;20437;-75
2022/07/16 10:30:32;;;;;;;5.70;2.90;;;;;;;16.65;100.00;102176.69;4977949;28;20445;-75
2022/07/16 10:33:06;;;;;;;4.20;2.00;;;;;;;18.32;100.00;102424.41;4981540;28;20511;-75
2022/07/16 10:35:38;;;;;;;3.73;2.20;;;;;;;16.64;100.00;102159.59;4984489;28;20491;-75
2022/07/16 10:38:08;;;;;;;11.73;8.27;;;;;;;18.51;100.00;102429.78;4982548;28;20481;-75
2022/07/16 10:40:38;;;;;;;6.53;4.00;;;;;;;16.15;100.00;102043.53;4983605;28;20427;-75
2022/07/16 10:43:16;;;;;;;2.80;1.43;;;;;;;16.16;100.00;102146.19;4981049;28;20939;-75
2022/07/16 10:46:02;;;;;;;3.67;1.43;;;;;;;17.67;100.00;102305.59;4998288;28;20515;-75
2022/07/16 10:48:41;;;;;;;2.50;1.07;;;;;;;17.79;100.00;102244.28;4983568;28;20466;-75
2022/07/16 10:51:15;;;;;;;2.40;1.20;;;;;;;18.57;100.00;102441.66;4997707;28;21004;-75
2022/07/16 10:54:02;;;;;;;5.17;1.10;;;;;;;18.19;100.00;102439.63;4982337;28;20445;-75
2022/07/16 10:56:48;;;;;;;2.77;0.87;;;;;;;18.38;100.00;102443.38;4986564;28;20475;-76
2022/07/16 10:59:19;;;;;;;2.97;0.80;;;;;;;18.00;100.00;102427.78;4977861;28;20918;-75
2022/07/16 11:01:47;;;;;;;7.70;1.27;;;;;;;16.32;100.00;102204.56;4980145;28;20448;-76
2022/07/16 11:04:14;;;;;;;3.50;1.33;;;;;;;18.00;100.00;102473.09;4983878;28;21009;-75
2022/07/16 11:06:49;;;;;;;5.70;1.37;;;;;;;17.36;100.00;102336.09;4980809;28;20830;-75
2022/07/16 11:09:22;;;;;;;2.30;0.90;;;;;;;17.19;100.00;102265.16;4980082;28;20464;-75
2022/07/16 11:11:48;;;;;;;1.93;0.83;;;;;;;17.59;100.00;102270.56;4981327;28;20441;-75
2022/07/16 11:14:16;;;;;;;6.00;1.70;;;;;;;16.47;100.00;102061.66;4981883;28;26075;-74
2022/07/16 11:17:07;;;;;;;5.77;1.40;;;;;;;18.78;100.00;102515.88;4982899;28;20205;-74
2022/07/16 11:19:41;;;;;;;2.77;1.20;;;;;;;16.09;100.00;102056.03;4979349;28;20461;-75
2022/07/16 11:22:07;;;;;;;2.03;0.90;;;;;;;16.56;100.00;102086.66;4981239;28;20442;-72